createdAt,value
2022-10-03T00:00:07.888Z,0.70
2022-10-03T00:03:38.322Z,0.43
2022-10-03T00:07:05.577Z,0.70
2022-10-03T00:10:49.353Z,0.75
2022-10-03T00:14:29.943Z,0.70
2022-10-03T00:18:12.287Z,0.98
2022-10-03T00:22:12.838Z,0.65
2022-10-03T00:26:30.909Z,0.45
2022-10-03T00:30:13.405Z,0.70
2022-10-03T00:33:47.541Z,0.65
2022-10-03T00:37:12.587Z,0.65
2022-10-03T00:41:11.616Z,0.60
2022-10-03T00:44:45.582Z,0.63
2022-10-03T00:48:31.981Z,0.40
2022-10-03T00:52:11.922Z,0.60
2022-10-03T00:55:51.958Z,0.38
2022-10-03T00:59:14.307Z,0.63
2022-10-03T01:02:39.478Z,0.70
2022-10-03T01:10:09.725Z,0.60
2022-10-03T01:13:59.603Z,0.63
2022-10-03T01:17:59.431Z,0.63
2022-10-03T01:21:30.518Z,0.60
2022-10-03T01:24:57.467Z,0.73
2022-10-03T01:28:56.594Z,0.82
2022-10-03T01:32:46.421Z,0.65
2022-10-03T01:36:08.575Z,0.47
2022-10-03T01:40:05.010Z,0.68
2022-10-03T01:44:12.817Z,0.80
2022-10-03T01:47:51.456Z,0.68
2022-10-03T01:51:40.398Z,0.50
2022-10-03T01:55:15.707Z,0.60
2022-10-03T01:58:57.925Z,0.50
2022-10-03T02:02:52.140Z,0.77
2022-10-03T02:06:21.366Z,0.73
2022-10-03T02:09:49.718Z,0.70
2022-10-03T02:13:17.450Z,0.88
2022-10-03T02:16:52.765Z,0.50
2022-10-03T02:20:40.942Z,0.50
2022-10-03T02:24:06.145Z,0.60
2022-10-03T02:31:23.713Z,0.60
2022-10-03T02:35:03.867Z,0.70
2022-10-03T02:38:51.937Z,0.90
2022-10-03T02:42:25.209Z,0.70
2022-10-03T02:46:18.322Z,0.40
2022-10-03T02:49:47.934Z,0.65
2022-10-03T02:53:35.084Z,0.60
2022-10-03T02:57:29.724Z,0.75
2022-10-03T03:01:16.220Z,0.50
2022-10-03T03:05:06.003Z,0.60
2022-10-03T03:08:40.458Z,0.90
2022-10-03T03:12:43.188Z,0.60
2022-10-03T03:16:11.258Z,0.60
2022-10-03T03:19:54.871Z,0.70
2022-10-03T03:23:55.447Z,0.60
2022-10-03T03:27:26.473Z,0.65
2022-10-03T03:31:00.175Z,0.60
2022-10-03T03:34:30.998Z,0.50
2022-10-03T03:38:02.574Z,0.50
2022-10-03T03:41:36.646Z,0.55
2022-10-03T03:45:19.427Z,0.60
2022-10-03T03:48:59.923Z,0.57
2022-10-03T03:52:37.445Z,0.70
2022-10-03T03:56:17.912Z,0.60
2022-10-03T03:59:58.142Z,0.65
2022-10-03T04:04:00.870Z,0.70
2022-10-03T04:07:29.060Z,0.63
2022-10-03T04:11:33.135Z,0.93
2022-10-03T04:15:14.270Z,0.60
2022-10-03T04:19:00.051Z,0.80
2022-10-03T04:22:42.501Z,0.88
2022-10-03T04:26:10.987Z,0.80
2022-10-03T04:30:23.933Z,0.82
2022-10-03T04:34:03.983Z,0.70
2022-10-03T04:37:48.049Z,0.80
2022-10-03T04:41:43.042Z,0.90
2022-10-03T04:45:17.251Z,0.80
2022-10-03T04:48:52.124Z,0.68
2022-10-03T04:52:49.300Z,0.75
2022-10-03T04:56:40.750Z,0.70
2022-10-03T05:00:28.332Z,0.77
2022-10-03T05:04:20.800Z,0.70
2022-10-03T05:08:31.536Z,0.93
2022-10-03T05:12:33.797Z,0.68
2022-10-03T05:16:14.159Z,0.98
2022-10-03T05:19:40.851Z,0.68
2022-10-03T05:23:19.756Z,0.68
2022-10-03T05:27:03.269Z,0.68
2022-10-03T05:30:35.417Z,0.50
2022-10-03T05:34:03.939Z,0.70
2022-10-03T05:37:47.773Z,0.63
2022-10-03T05:41:31.471Z,0.80
2022-10-03T05:45:37.077Z,0.73
2022-10-03T05:49:34.182Z,0.60
2022-10-03T05:53:33.494Z,0.68
2022-10-03T05:57:32.597Z,0.85
2022-10-03T06:01:19.178Z,0.80
2022-10-03T06:04:59.204Z,0.70
2022-10-03T06:08:42.731Z,0.60
2022-10-03T06:12:07.671Z,0.80
2022-10-03T06:15:45.905Z,0.80
2022-10-03T06:19:23.297Z,0.63
2022-10-03T06:23:21.646Z,0.63
2022-10-03T06:27:29.180Z,0.63
2022-10-03T06:31:16.176Z,0.55
2022-10-03T06:35:08.864Z,0.50
2022-10-03T06:38:53.670Z,0.75
2022-10-03T06:42:36.400Z,0.70
2022-10-03T06:46:23.684Z,0.77
2022-10-03T06:50:04.142Z,0.60
2022-10-03T06:53:38.332Z,0.60
2022-10-03T06:57:16.768Z,0.60
2022-10-03T07:01:12.462Z,0.60
2022-10-03T07:04:34.704Z,0.47
2022-10-03T07:08:27.877Z,0.70
2022-10-03T07:12:14.254Z,0.47
2022-10-03T07:19:59.123Z,0.73
2022-10-03T07:24:03.362Z,0.60
2022-10-03T07:27:48.667Z,0.80
2022-10-03T07:31:40.539Z,0.75
2022-10-03T07:35:16.643Z,0.70
2022-10-03T07:39:00.780Z,0.70
2022-10-03T07:42:48.426Z,0.40
2022-10-03T07:46:37.981Z,0.43
2022-10-03T07:50:22.449Z,0.50
2022-10-03T07:53:56.608Z,0.32
2022-10-03T07:57:38.157Z,0.45
2022-10-03T08:01:21.987Z,0.50
2022-10-03T08:05:25.779Z,0.70
2022-10-03T08:08:55.506Z,0.50
2022-10-03T08:12:32.931Z,0.50
2022-10-03T08:15:55.086Z,0.40
2022-10-03T08:19:38.984Z,0.30
2022-10-03T08:23:30.257Z,0.55
2022-10-03T08:27:01.897Z,0.65
2022-10-03T08:30:41.201Z,0.60
2022-10-03T08:34:49.591Z,0.52
2022-10-03T08:38:54.856Z,0.57
2022-10-03T08:42:49.443Z,0.30
2022-10-03T08:46:14.460Z,0.35
2022-10-03T08:49:40.733Z,0.45
2022-10-03T08:53:21.944Z,0.50
2022-10-03T08:56:58.021Z,0.50
2022-10-03T09:00:41.495Z,0.45
2022-10-03T09:04:27.909Z,0.70
2022-10-03T09:08:23.654Z,0.43
2022-10-03T09:12:06.881Z,0.30
2022-10-03T09:16:06.750Z,0.35
2022-10-03T09:20:00.610Z,0.40
2022-10-03T09:23:46.611Z,0.60
2022-10-03T09:27:28.350Z,0.30
2022-10-03T09:31:12.744Z,0.60
2022-10-03T09:35:04.783Z,0.50
2022-10-03T09:38:56.634Z,0.50
2022-10-03T09:42:53.503Z,0.30
2022-10-03T09:46:27.070Z,0.30
2022-10-03T09:50:21.409Z,0.60
2022-10-03T09:53:58.076Z,0.40
2022-10-03T09:57:38.943Z,0.57
2022-10-03T10:01:13.137Z,0.38
2022-10-03T10:04:55.321Z,0.50
2022-10-03T10:08:40.884Z,0.32
2022-10-03T10:12:28.317Z,0.52
2022-10-03T10:16:15.179Z,0.40
2022-10-03T10:19:51.343Z,0.40
2022-10-03T10:23:28.917Z,0.50
2022-10-03T10:27:20.343Z,0.40
2022-10-03T10:31:07.378Z,0.40
2022-10-03T10:34:41.334Z,0.57
2022-10-03T10:38:27.215Z,0.65
2022-10-03T10:42:24.078Z,0.90
2022-10-03T10:46:18.612Z,28.33
2022-10-03T10:49:45.775Z,30.92
2022-10-03T10:53:27.816Z,26.58
2022-10-03T10:57:19.544Z,22.60
2022-10-03T11:01:26.445Z,23.63
2022-10-03T11:05:29.457Z,13.50
2022-10-03T11:09:03.836Z,9.88
2022-10-03T11:12:44.150Z,16.23
2022-10-03T11:16:44.577Z,14.57
2022-10-03T11:20:41.189Z,13.57
2022-10-03T11:24:30.710Z,11.80
2022-10-03T11:28:11.495Z,12.48
2022-10-03T11:32:08.354Z,9.65
2022-10-03T11:35:52.746Z,8.10
2022-10-03T11:39:34.197Z,7.95
2022-10-03T11:43:13.689Z,7.55
2022-10-03T11:47:03.321Z,7.18
2022-10-03T11:50:41.774Z,6.68
2022-10-03T11:54:30.121Z,6.55
2022-10-03T11:58:11.451Z,5.95
2022-10-03T12:02:06.333Z,5.63
2022-10-03T12:06:14.288Z,5.55
2022-10-03T12:10:11.893Z,4.60
2022-10-03T12:14:01.406Z,4.43
2022-10-03T12:17:35.247Z,4.47
2022-10-03T12:21:07.571Z,3.83
2022-10-03T12:24:34.153Z,3.60
2022-10-03T12:28:05.305Z,3.28
2022-10-03T12:32:09.206Z,3.22
2022-10-03T12:35:52.730Z,3.13
2022-10-03T12:39:26.889Z,3.10
2022-10-03T12:42:49.028Z,2.67
2022-10-03T12:46:43.351Z,2.05
2022-10-03T12:50:27.785Z,2.08
2022-10-03T12:54:18.157Z,2.45
2022-10-03T12:58:02.991Z,1.70
2022-10-03T13:01:45.550Z,1.60
2022-10-03T13:05:28.835Z,1.77
2022-10-03T13:09:10.724Z,1.70
2022-10-03T13:12:44.297Z,1.52
2022-10-03T13:16:28.984Z,1.27
2022-10-03T13:20:15.305Z,1.23
2022-10-03T13:23:49.261Z,1.48
2022-10-03T13:27:41.648Z,1.10
2022-10-03T13:31:16.135Z,1.02
2022-10-03T13:34:57.332Z,1.10
2022-10-03T13:38:28.473Z,0.90
2022-10-03T13:42:20.605Z,0.90
2022-10-03T13:45:47.536Z,1.00
2022-10-03T13:49:40.437Z,0.73
2022-10-03T13:53:40.540Z,0.70
2022-10-03T13:57:27.267Z,0.82
2022-10-03T14:01:11.578Z,1.05
2022-10-03T14:04:54.434Z,0.50
2022-10-03T14:08:38.240Z,0.60
2022-10-03T14:12:15.053Z,0.50
2022-10-03T14:16:06.528Z,0.60
2022-10-03T14:19:41.940Z,0.70
2022-10-03T14:26:42.166Z,0.60
2022-10-03T14:30:11.193Z,0.50
2022-10-03T14:33:36.320Z,0.60
2022-10-03T14:40:35.691Z,0.60
2022-10-03T14:44:13.277Z,0.57
2022-10-03T14:47:42.327Z,0.52
2022-10-03T14:51:20.181Z,0.40
2022-10-03T14:54:43.463Z,0.57
2022-10-03T14:58:29.515Z,0.50
2022-10-03T15:01:54.790Z,0.40
2022-10-03T15:05:35.093Z,0.50
2022-10-03T15:08:59.990Z,0.35
2022-10-03T15:12:28.596Z,0.43
2022-10-03T15:15:53.758Z,0.30
2022-10-03T15:22:52.256Z,0.40
2022-10-03T15:26:21.617Z,0.40
2022-10-03T15:29:45.692Z,0.45
2022-10-03T15:33:20.978Z,0.30
2022-10-03T15:36:49.049Z,0.57
2022-10-03T15:40:33.373Z,0.40
2022-10-03T15:44:10.514Z,0.30
2022-10-03T15:47:44.033Z,0.45
2022-10-03T15:51:19.618Z,0.40
2022-10-03T15:54:46.273Z,0.40
2022-10-03T15:58:36.641Z,0.38
2022-10-03T16:02:09.289Z,0.47
2022-10-03T16:05:31.973Z,0.50
2022-10-03T16:09:11.892Z,0.45
2022-10-03T16:12:56.493Z,0.30
2022-10-03T16:16:21.005Z,0.35
2022-10-03T16:19:55.205Z,0.30
2022-10-03T16:23:37.837Z,0.25
2022-10-03T16:27:22.430Z,0.30
2022-10-03T16:30:49.434Z,0.30
2022-10-03T16:34:17.174Z,0.30
2022-10-03T16:37:41.868Z,0.20
2022-10-03T16:41:26.337Z,0.40
2022-10-03T16:44:48.483Z,0.30
2022-10-03T16:48:40.496Z,0.55
2022-10-03T16:52:08.812Z,0.20
2022-10-03T16:55:36.202Z,0.40
2022-10-03T16:59:13.364Z,0.20
2022-10-03T17:02:38.877Z,0.25
2022-10-03T17:06:04.692Z,0.30
2022-10-03T17:09:47.643Z,0.30
2022-10-03T17:13:20.194Z,0.32
2022-10-03T17:16:52.555Z,0.32
2022-10-03T17:20:36.349Z,0.40
2022-10-03T17:24:06.051Z,0.40
2022-10-03T17:27:37.893Z,0.30
2022-10-03T17:31:06.025Z,0.77
2022-10-03T17:34:46.773Z,4.93
2022-10-03T17:38:50.065Z,28.88
2022-10-03T17:42:31.457Z,32.55
2022-10-03T17:46:21.413Z,41.08
2022-10-03T17:49:52.312Z,59.40
2022-10-03T17:53:33.933Z,64.47
2022-10-03T17:57:14.206Z,49.10
2022-10-03T18:00:45.342Z,52.95
2022-10-03T18:04:18.580Z,34.17
2022-10-03T18:07:44.750Z,40.83
2022-10-03T18:11:10.090Z,32.78
2022-10-03T18:14:51.021Z,34.13
2022-10-03T18:18:37.826Z,45.20
2022-10-03T18:22:06.001Z,41.85
2022-10-03T18:29:51.481Z,40.63
2022-10-03T18:33:39.461Z,34.90
2022-10-03T18:37:24.879Z,38.13
2022-10-03T18:40:47.505Z,35.55
2022-10-03T18:44:16.953Z,31.08
2022-10-03T18:47:52.455Z,30.63
2022-10-03T18:51:37.150Z,31.77
2022-10-03T18:55:19.567Z,29.87
2022-10-03T18:58:53.845Z,28.58
2022-10-03T19:02:39.528Z,29.70
2022-10-03T19:10:16.584Z,24.75
2022-10-03T19:14:21.152Z,24.08
2022-10-03T19:18:07.190Z,25.27
2022-10-03T19:21:37.313Z,23.30
2022-10-03T19:25:06.825Z,16.20
2022-10-03T19:28:33.814Z,19.33
2022-10-03T19:32:04.048Z,17.60
2022-10-03T19:35:28.305Z,18.88
2022-10-03T19:38:53.145Z,21.43
2022-10-03T19:42:40.497Z,14.05
2022-10-03T19:46:08.666Z,11.48
2022-10-03T19:49:43.265Z,14.68
2022-10-03T19:53:16.848Z,13.80
2022-10-03T19:56:39.219Z,14.15
2022-10-03T20:00:06.684Z,13.50
2022-10-03T20:03:43.242Z,12.15
2022-10-03T20:07:16.649Z,11.77
2022-10-03T20:11:05.792Z,12.25
2022-10-03T20:14:36.534Z,11.05
2022-10-03T20:18:02.578Z,10.02
2022-10-03T20:21:29.115Z,10.45
2022-10-03T20:24:51.786Z,10.52
2022-10-03T20:28:26.210Z,10.65
2022-10-03T20:31:49.246Z,10.00
2022-10-03T20:35:18.003Z,9.52
2022-10-03T20:38:58.314Z,9.85
2022-10-03T20:42:26.311Z,9.80
2022-10-03T20:46:07.961Z,10.02
2022-10-03T20:49:40.436Z,8.70
2022-10-03T20:53:10.823Z,8.45
2022-10-03T20:56:46.218Z,8.68
2022-10-03T21:03:43.306Z,7.95
2022-10-03T21:07:11.458Z,7.07
2022-10-03T21:10:38.203Z,6.50
2022-10-03T21:14:24.673Z,7.00
2022-10-03T21:17:48.081Z,7.00
2022-10-03T21:21:13.138Z,6.72
2022-10-03T21:28:26.961Z,6.45
2022-10-03T21:32:30.525Z,6.20
2022-10-03T21:35:54.207Z,5.80
2022-10-03T21:39:36.591Z,6.05
2022-10-03T21:43:24.486Z,5.60
2022-10-03T21:47:18.211Z,5.30
2022-10-03T21:50:52.601Z,5.57
2022-10-03T21:54:56.254Z,4.97
2022-10-03T21:58:36.777Z,4.63
2022-10-03T22:02:15.941Z,4.55
2022-10-03T22:05:48.986Z,4.47
2022-10-03T22:09:15.580Z,5.07
2022-10-03T22:13:06.709Z,4.63
2022-10-03T22:16:49.946Z,4.40
2022-10-03T22:20:25.004Z,4.50
2022-10-03T22:24:19.870Z,4.40
2022-10-03T22:27:46.394Z,3.83
2022-10-03T22:31:17.588Z,4.15
2022-10-03T22:35:04.806Z,3.92
2022-10-03T22:38:36.113Z,3.40
2022-10-03T22:42:02.807Z,3.58
2022-10-03T22:45:29.356Z,4.40
2022-10-03T22:49:03.884Z,3.55
2022-10-03T22:52:30.082Z,3.17
2022-10-03T22:55:58.488Z,2.97
2022-10-03T22:59:23.909Z,2.80
2022-10-03T23:03:16.448Z,3.17
2022-10-03T23:06:44.712Z,3.33
2022-10-03T23:10:25.964Z,2.78
2022-10-03T23:13:48.643Z,3.00
2022-10-03T23:17:27.805Z,2.65
2022-10-03T23:21:05.011Z,2.60
2022-10-03T23:24:44.117Z,2.83
2022-10-03T23:28:24.844Z,2.83
2022-10-03T23:31:54.368Z,2.75
2022-10-03T23:35:20.955Z,2.92
2022-10-03T23:38:43.344Z,2.35
2022-10-03T23:42:25.250Z,2.70
2022-10-03T23:45:53.458Z,2.05
2022-10-03T23:49:16.122Z,2.15
2022-10-03T23:52:46.644Z,2.00
2022-10-03T23:56:27.484Z,1.75
2022-10-03T23:59:50.476Z,2.10
